Geff, Illinois
Current Conditions -  °F | °C
As of 1:35 AM on Wednesday 22 Oct 2014 (Local Time) from KFWC Reporting Station
Clear Clear  
Wind Chill: 41°   Ceiling: Unl
Heat Index: 44°   Visibility: 10mi
Dew Point: 41°   Wind: 5mph
Humidity: 91%   Direction: 10°N
Pressure: 30.21"   Gusts: NA
Location:  38.44°N, 88.4°W
Report Text: KFWC 220635Z AUTO 01004KT 10SM CLR 07/05 A3021 RMK AO1 T00650052
Loading
Personal Weather Stations






























Interactive Weather Map
Tropical Storm Tracking
New forecast layout! Learn more

10-Day Weather Forecast

Advertisements
Track Severe Weather on mobile